createdAt,value
2022-09-12T00:08:11.952Z,10
2022-09-12T00:36:53.846Z,10
2022-09-12T01:05:34.002Z,11
2022-09-12T01:34:13.790Z,14
2022-09-12T02:02:57.275Z,12
2022-09-12T02:31:42.746Z,13
2022-09-12T03:00:24.185Z,14
2022-09-12T03:29:04.951Z,15
2022-09-12T03:57:49.066Z,21
2022-09-12T04:26:27.204Z,15
2022-09-12T04:55:07.403Z,14
2022-09-12T05:23:50.272Z,14
2022-09-12T05:52:26.732Z,15
2022-09-12T06:20:58.569Z,15
2022-09-12T07:47:22.422Z,10
2022-09-12T09:14:34.875Z,12
2022-09-12T09:43:08.177Z,11
2022-09-12T10:11:43.746Z,9
2022-09-12T10:39:59.593Z,8
2022-09-12T11:08:31.245Z,7
2022-09-12T12:05:15.116Z,3
2022-09-12T12:33:45.657Z,3
2022-09-12T13:02:27.458Z,4
2022-09-12T13:31:02.266Z,4
2022-09-12T13:59:36.287Z,4
2022-09-12T14:28:12.569Z,4
2022-09-12T14:56:47.562Z,4
2022-09-12T15:25:21.590Z,5
2022-09-12T15:53:57.828Z,4
2022-09-12T16:22:24.754Z,4
2022-09-12T16:50:56.294Z,3
2022-09-12T17:19:22.241Z,4
2022-09-12T17:47:43.438Z,4
2022-09-12T18:16:14.530Z,4
2022-09-12T18:44:42.084Z,4
2022-09-12T19:13:20.938Z,4
2022-09-12T19:41:51.743Z,6
2022-09-12T20:10:19.097Z,7
2022-09-12T20:39:00.347Z,8
2022-09-12T21:07:34.057Z,6
2022-09-12T21:36:23.824Z,7
2022-09-12T22:04:54.325Z,7
2022-09-12T22:33:20.186Z,7
2022-09-12T23:01:57.468Z,7
2022-09-12T23:30:24.920Z,7
2022-09-12T23:59:07.747Z,7
